Check out our new BloomSky Weather System.

Active alerts


No alerts


Thunder radar  blitzortung!


Rain radar more information rain snow radar


Visit our other weather sites:

Template documentation
and downloads

And another site



Weather Underground History page Text

Daily Summary for July 17, 2017 Units:  English    Metric   Both
« Previous Day
Next Day »
Daily Weekly Monthly Yearly Custom
  High: Low: Average:
Temperature: 94.1 °F 76.3 °F 84.9 °F
Dew Point: 79.3 °F 74.7 °F 76.7 °F
Humidity: 96 % 56 % 78 %
Wind Speed: 9.0 mph 0.0 mph 1.8 mph
Wind Gust: 14.0 mph - -
Wind:- - SSE
Pressure: 29.95 in 29.86 in -
Precipitation: 0.00 in    
Historical Graphs
 
 
Tabular Data for July 17, 2017
Time Temperature Dew Point Pressure Wind Wind Speed Wind Gust Humidity Rainfall Rate (Hourly)
00:01 80.6 °F 76.1 °F 29.92 in SE 1.0 mph 3.0 mph 86 % 0.00 in
00:06 80.6 °F 76.1 °F 29.92 in Calm   2.0 mph 86 % 0.00 in
00:11 80.4 °F 75.9 °F 29.92 in Calm   2.0 mph 86 % 0.00 in
00:16 80.4 °F 75.9 °F 29.91 in South 1.0 mph 2.0 mph 86 % 0.00 in
00:21 80.4 °F 75.9 °F 29.91 in SSW 1.0 mph 2.0 mph 86 % 0.00 in
00:26 80.4 °F 76.1 °F 29.91 in Calm   2.0 mph 87 % 0.00 in
00:31 80.2 °F 75.7 °F 29.91 in Calm   2.0 mph 86 % 0.00 in
00:36 80.1 °F 75.9 °F 29.91 in South 1.0 mph 2.0 mph 87 % 0.00 in
00:41 80.1 °F 75.9 °F 29.91 in South 1.0 mph 2.0 mph 87 % 0.00 in
00:46 80.1 °F 75.9 °F 29.91 in South 1.0 mph 2.0 mph 87 % 0.00 in
00:51 80.1 °F 75.9 °F 29.91 in Calm   2.0 mph 87 % 0.00 in
00:56 79.9 °F 75.9 °F 29.91 in Calm   1.0 mph 88 % 0.00 in
01:01 79.9 °F 75.9 °F 29.91 in Calm   1.0 mph 88 % 0.00 in
01:06 79.7 °F 75.7 °F 29.91 in Calm   1.0 mph 88 % 0.00 in
01:11 79.5 °F 75.6 °F 29.91 in Calm   1.0 mph 88 % 0.00 in
01:16 79.5 °F 75.9 °F 29.91 in Calm   1.0 mph 89 % 0.00 in
01:22 79.5 °F 75.9 °F 29.91 in Calm   1.0 mph 89 % 0.00 in
01:27 79.5 °F 75.9 °F 29.91 in Calm   1.0 mph 89 % 0.00 in
01:32 79.3 °F 75.7 °F 29.91 in Calm   1.0 mph 89 % 0.00 in
01:37 79.3 °F 75.7 °F 29.91 in Calm   1.0 mph 89 % 0.00 in
01:42 79.3 °F 75.7 °F 29.91 in Calm   1.0 mph 89 % 0.00 in
01:47 79.3 °F 75.7 °F 29.91 in Calm   1.0 mph 89 % 0.00 in
01:52 79.3 °F 75.7 °F 29.91 in Calm   1.0 mph 89 % 0.00 in
01:57 79.2 °F 75.6 °F 29.91 in Calm   1.0 mph 89 % 0.00 in
02:02 79.2 °F 75.9 °F 29.91 in Calm     90 % 0.00 in
02:07 79.2 °F 75.9 °F 29.91 in Calm     90 % 0.00 in
02:12 79.2 °F 75.9 °F 29.91 in Calm     90 % 0.00 in
02:17 79.0 °F 75.7 °F 29.91 in Calm     90 % 0.00 in
02:22 79.0 °F 75.7 °F 29.90 in Calm     90 % 0.00 in
02:27 79.0 °F 75.7 °F 29.90 in Calm     90 % 0.00 in
02:32 79.0 °F 76.1 °F 29.90 in Calm     91 % 0.00 in
02:37 79.0 °F 76.1 °F 29.90 in Calm     91 % 0.00 in
02:42 79.2 °F 76.3 °F 29.90 in Calm     91 % 0.00 in
02:47 79.2 °F 76.3 °F 29.90 in Calm     91 % 0.00 in
02:52 79.2 °F 76.3 °F 29.90 in Calm     91 % 0.00 in
02:57 79.2 °F 76.3 °F 29.90 in Calm     91 % 0.00 in
03:02 79.2 °F 76.3 °F 29.89 in Calm     91 % 0.00 in
03:07 79.0 °F 76.1 °F 29.89 in Calm     91 % 0.00 in
03:12 79.0 °F 76.1 °F 29.89 in Calm     91 % 0.00 in
03:17 79.0 °F 76.1 °F 29.90 in Calm     91 % 0.00 in
03:22 79.0 °F 76.1 °F 29.90 in Calm   1.0 mph 91 % 0.00 in
03:27 79.0 °F 76.1 °F 29.89 in SE 1.0 mph 1.0 mph 91 % 0.00 in
03:32 79.0 °F 76.5 °F 29.89 in Calm   1.0 mph 92 % 0.00 in
03:37 79.2 °F 76.3 °F 29.89 in Calm   1.0 mph 91 % 0.00 in
03:42 79.2 °F 76.3 °F 29.90 in Calm   1.0 mph 91 % 0.00 in
03:47 79.2 °F 76.3 °F 29.90 in Calm   1.0 mph 91 % 0.00 in
03:52 79.2 °F 76.3 °F 29.89 in Calm   1.0 mph 91 % 0.00 in
03:57 79.2 °F 76.3 °F 29.89 in NW 1.0 mph 2.0 mph 91 % 0.00 in
04:02 79.2 °F 76.3 °F 29.89 in NW 1.0 mph 3.0 mph 91 % 0.00 in
04:07 79.0 °F 76.1 °F 29.89 in NW 1.0 mph 3.0 mph 91 % 0.00 in
04:12 78.8 °F 75.9 °F 29.89 in NW 2.0 mph 3.0 mph 91 % 0.00 in
04:17 78.6 °F 75.7 °F 29.89 in NW 2.0 mph 4.0 mph 91 % 0.00 in
04:22 78.4 °F 75.9 °F 29.89 in NW 2.0 mph 4.0 mph 92 % 0.00 in
04:27 78.4 °F 75.9 °F 29.89 in NW 1.0 mph 4.0 mph 92 % 0.00 in
04:32 78.3 °F 75.7 °F 29.89 in NW 2.0 mph 3.0 mph 92 % 0.00 in
04:37 78.1 °F 75.9 °F 29.89 in WNW 2.0 mph 3.0 mph 93 % 0.00 in
04:42 78.1 °F 75.9 °F 29.89 in NW 1.0 mph 3.0 mph 93 % 0.00 in
04:47 78.1 °F 75.9 °F 29.89 in Calm   3.0 mph 93 % 0.00 in
04:52 77.9 °F 75.7 °F 29.89 in Calm   3.0 mph 93 % 0.00 in
04:57 77.9 °F 75.7 °F 29.89 in Calm   3.0 mph 93 % 0.00 in
05:02 77.7 °F 75.6 °F 29.89 in Calm   1.0 mph 93 % 0.00 in
05:07 77.5 °F 75.4 °F 29.89 in Calm   1.0 mph 93 % 0.00 in
05:12 77.4 °F 75.2 °F 29.89 in Calm     93 % 0.00 in
05:17 77.2 °F 75.0 °F 29.90 in Calm     93 % 0.00 in
05:22 77.2 °F 75.0 °F 29.90 in Calm     93 % 0.00 in
05:27 77.2 °F 75.4 °F 29.90 in Calm     94 % 0.00 in
05:32 77.0 °F 75.2 °F 29.90 in Calm     94 % 0.00 in
05:37 76.8 °F 75.0 °F 29.90 in Calm     94 % 0.00 in
05:42 76.6 °F 74.8 °F 29.90 in Calm     94 % 0.00 in
05:47 76.5 °F 74.7 °F 29.90 in Calm     94 % 0.00 in
05:52 76.6 °F 74.8 °F 29.90 in Calm     94 % 0.00 in
05:57 76.6 °F 74.8 °F 29.90 in Calm     94 % 0.00 in
06:02 76.5 °F 74.7 °F 29.90 in Calm     94 % 0.00 in
06:07 76.5 °F 74.8 °F 29.90 in Calm     95 % 0.00 in
06:12 76.5 °F 74.8 °F 29.90 in Calm     95 % 0.00 in
06:17 76.5 °F 74.8 °F 29.90 in Calm     95 % 0.00 in
06:22 76.5 °F 74.8 °F 29.90 in Calm   1.0 mph 95 % 0.00 in
06:27 76.5 °F 74.8 °F 29.90 in Calm   1.0 mph 95 % 0.00 in
06:32 76.5 °F 74.8 °F 29.90 in Calm   1.0 mph 95 % 0.00 in
06:37 76.3 °F 74.7 °F 29.90 in Calm     95 % 0.00 in
06:38 76.3 °F 74.7 °F 29.90 in Calm     95 % 0.00 in
06:44 76.3 °F 74.7 °F 29.90 in Calm   1.0 mph 95 % 0.00 in
06:49 76.3 °F 74.7 °F 29.90 in Calm   1.0 mph 95 % 0.00 in
06:54 76.5 °F 75.2 °F 29.91 in Calm   1.0 mph 96 % 0.00 in
06:59 76.5 °F 75.2 °F 29.91 in Calm   1.0 mph 96 % 0.00 in
07:04 76.5 °F 75.2 °F 29.91 in Calm   1.0 mph 96 % 0.00 in
07:09 76.6 °F 75.4 °F 29.90 in Calm   1.0 mph 96 % 0.00 in
07:14 76.6 °F 75.4 °F 29.90 in Calm   1.0 mph 96 % 0.00 in
07:19 76.8 °F 75.6 °F 29.90 in Calm     96 % 0.00 in
07:24 77.4 °F 76.1 °F 29.91 in Calm     96 % 0.00 in
07:29 78.3 °F 77.0 °F 29.91 in Calm     96 % 0.00 in
07:34 78.6 °F 76.8 °F 29.91 in Calm     94 % 0.00 in
07:39 79.2 °F 77.5 °F 29.91 in Calm   1.0 mph 95 % 0.00 in
07:44 79.7 °F 77.9 °F 29.91 in Calm   1.0 mph 94 % 0.00 in
07:49 80.8 °F 78.8 °F 29.91 in Calm   1.0 mph 94 % 0.00 in
07:54 81.7 °F 79.2 °F 29.91 in Calm   1.0 mph 92 % 0.00 in
07:59 82.6 °F 79.0 °F 29.92 in Calm   1.0 mph 89 % 0.00 in
08:04 83.1 °F 78.1 °F 29.92 in Calm   1.0 mph 85 % 0.00 in
08:09 83.8 °F 78.4 °F 29.92 in Calm   1.0 mph 84 % 0.00 in
08:14 84.0 °F 77.2 °F 29.92 in NW 1.0 mph 1.0 mph 80 % 0.00 in
08:16 83.8 °F 77.0 °F 29.92 in Calm   1.0 mph 80 % 0.00 in
08:21 84.0 °F 77.2 °F 29.92 in Calm   1.0 mph 80 % 0.00 in
08:26 84.7 °F 78.3 °F 29.92 in Calm   1.0 mph 81 % 0.00 in
08:31 84.7 °F 77.5 °F 29.92 in Calm   3.0 mph 79 % 0.00 in
08:36 84.7 °F 77.2 °F 29.92 in NW 2.0 mph 3.0 mph 78 % 0.00 in
08:41 84.0 °F 76.8 °F 29.93 in NNW 2.0 mph 4.0 mph 79 % 0.00 in
08:46 84.2 °F 76.6 °F 29.93 in NNW 2.0 mph 4.0 mph 78 % 0.00 in
08:51 84.6 °F 77.4 °F 29.93 in Calm   4.0 mph 79 % 0.00 in
08:56 85.3 °F 77.7 °F 29.93 in NNW 2.0 mph 4.0 mph 78 % 0.00 in
09:01 85.3 °F 77.2 °F 29.93 in Calm   4.0 mph 77 % 0.00 in
09:06 85.5 °F 77.4 °F 29.93 in WNW 1.0 mph 4.0 mph 77 % 0.00 in
09:11 85.5 °F 77.0 °F 29.93 in WNW 2.0 mph 4.0 mph 76 % 0.00 in
09:16 85.5 °F 77.4 °F 29.93 in NNW 2.0 mph 4.0 mph 77 % 0.00 in
09:21 85.6 °F 77.2 °F 29.93 in Calm   4.0 mph 76 % 0.00 in
09:26 86.2 °F 77.7 °F 29.94 in NW 1.0 mph 4.0 mph 76 % 0.00 in
09:31 86.4 °F 77.9 °F 29.94 in Calm   3.0 mph 76 % 0.00 in
09:36 87.1 °F 78.3 °F 29.94 in North 2.0 mph 3.0 mph 75 % 0.00 in
09:41 87.4 °F 78.1 °F 29.94 in WNW 2.0 mph 3.0 mph 74 % 0.00 in
09:46 87.1 °F 77.4 °F 29.94 in Calm   4.0 mph 73 % 0.00 in
09:51 88.0 °F 79.0 °F 29.94 in Calm   4.0 mph 75 % 0.00 in
09:56 89.1 °F 78.8 °F 29.94 in ESE 2.0 mph 4.0 mph 72 % 0.00 in
10:01 89.4 °F 78.3 °F 29.94 in NNW 2.0 mph 2.0 mph 70 % 0.00 in
10:06 89.8 °F 78.6 °F 29.94 in North 2.0 mph 3.0 mph 70 % 0.00 in
10:11 89.1 °F 77.2 °F 29.94 in West 1.0 mph 4.0 mph 68 % 0.00 in
10:16 88.2 °F 76.6 °F 29.94 in NNW 3.0 mph 4.0 mph 69 % 0.00 in
10:21 87.4 °F 76.8 °F 29.94 in WNW 1.0 mph 4.0 mph 71 % 0.00 in
10:26 87.3 °F 77.2 °F 29.94 in NW 3.0 mph 4.0 mph 72 % 0.00 in
10:31 87.3 °F 77.5 °F 29.94 in North 2.0 mph 4.0 mph 73 % 0.00 in
10:36 87.3 °F 77.2 °F 29.94 in Calm   4.0 mph 72 % 0.00 in
10:41 87.6 °F 77.5 °F 29.94 in Calm   4.0 mph 72 % 0.00 in
10:47 88.2 °F 77.2 °F 29.94 in Calm   4.0 mph 70 % 0.00 in
10:52 88.5 °F 77.9 °F 29.94 in NNW 2.0 mph 3.0 mph 71 % 0.00 in
10:57 88.9 °F 77.9 °F 29.94 in North 1.0 mph 5.0 mph 70 % 0.00 in
11:02 89.2 °F 77.7 °F 29.94 in ENE 1.0 mph 5.0 mph 69 % 0.00 in
11:07 89.1 °F 77.2 °F 29.94 in NE 1.0 mph 5.0 mph 68 % 0.00 in
11:12 88.9 °F 77.0 °F 29.95 in NNE 2.0 mph 4.0 mph 68 % 0.00 in
11:17 88.9 °F 77.9 °F 29.95 in East 1.0 mph 4.0 mph 70 % 0.00 in
11:22 89.2 °F 77.7 °F 29.94 in ENE 2.0 mph 4.0 mph 69 % 0.00 in
11:27 89.2 °F 77.4 °F 29.94 in Calm   4.0 mph 68 % 0.00 in
11:32 89.4 °F 78.3 °F 29.94 in East 2.0 mph 6.0 mph 70 % 0.00 in
11:37 89.4 °F 77.9 °F 29.94 in East 2.0 mph 6.0 mph 69 % 0.00 in
11:42 90.0 °F 77.9 °F 29.94 in Calm   6.0 mph 68 % 0.00 in
11:47 90.5 °F 78.1 °F 29.94 in NNW 2.0 mph 6.0 mph 67 % 0.00 in
11:52 91.0 °F 78.1 °F 29.94 in Calm   5.0 mph 66 % 0.00 in
11:57 91.2 °F 77.4 °F 29.94 in NNW 1.0 mph 5.0 mph 64 % 0.00 in
12:02 91.2 °F 77.7 °F 29.94 in Calm   5.0 mph 65 % 0.00 in
12:07 92.1 °F 78.3 °F 29.94 in NNE 1.0 mph 5.0 mph 64 % 0.00 in
12:12 92.3 °F 79.3 °F 29.94 in ESE 3.0 mph 4.0 mph 66 % 0.00 in
12:17 91.6 °F 78.1 °F 29.94 in WNW 2.0 mph 7.0 mph 65 % 0.00 in
12:22 91.2 °F 77.4 °F 29.94 in NE 1.0 mph 7.0 mph 64 % 0.00 in
12:27 91.6 °F 78.1 °F 29.93 in SSE 4.0 mph 7.0 mph 65 % 0.00 in
12:32 91.6 °F 77.2 °F 29.93 in ESE 2.0 mph 8.0 mph 63 % 0.00 in
12:37 91.6 °F 76.6 °F 29.93 in Calm   8.0 mph 62 % 0.00 in
12:42 92.1 °F 77.7 °F 29.93 in SE 1.0 mph 8.0 mph 63 % 0.00 in
12:47 92.5 °F 78.4 °F 29.93 in SE 2.0 mph 6.0 mph 64 % 0.00 in
12:51 92.7 °F 78.6 °F 29.93 in North 1.0 mph 6.0 mph 64 % 0.00 in
12:56 92.5 °F 77.5 °F 29.93 in ENE 2.0 mph 6.0 mph 62 % 0.00 in
13:01 92.1 °F 77.2 °F 29.93 in East 3.0 mph 6.0 mph 62 % 0.00 in
13:06 91.6 °F 78.1 °F 29.92 in Calm   5.0 mph 65 % 0.00 in
13:11 92.7 °F 78.3 °F 29.92 in NE 5.0 mph 5.0 mph 63 % 0.00 in
13:16 92.7 °F 76.8 °F 29.91 in ENE 2.0 mph 7.0 mph 60 % 0.00 in
13:21 93.0 °F 78.1 °F 29.92 in WNW 6.0 mph 7.0 mph 62 % 0.00 in
13:26 93.6 °F 78.6 °F 29.91 in East 2.0 mph 7.0 mph 62 % 0.00 in
13:31 93.7 °F 77.2 °F 29.92 in NNE 2.0 mph 6.0 mph 59 % 0.00 in
13:36 93.6 °F 78.1 °F 29.92 in SSE 1.0 mph 6.0 mph 61 % 0.00 in
13:41 94.1 °F 77.5 °F 29.91 in NE 2.0 mph 6.0 mph 59 % 0.00 in
13:46 93.9 °F 75.7 °F 29.91 in ESE 2.0 mph 7.0 mph 56 % 0.00 in
13:51 93.6 °F 76.6 °F 29.91 in ESE 5.0 mph 8.0 mph 58 % 0.00 in
13:56 93.6 °F 77.0 °F 29.91 in ENE 2.0 mph 8.0 mph 59 % 0.00 in
14:01 93.4 °F 76.8 °F 29.91 in ENE 3.0 mph 8.0 mph 59 % 0.00 in
14:06 92.8 °F 76.5 °F 29.91 in ESE 3.0 mph 7.0 mph 59 % 0.00 in
14:11 93.4 °F 76.5 °F 29.91 in ESE 3.0 mph 7.0 mph 58 % 0.00 in
14:16 93.2 °F 76.3 °F 29.91 in NE 1.0 mph 8.0 mph 58 % 0.00 in
14:21 92.5 °F 77.0 °F 29.91 in SE 3.0 mph 8.0 mph 61 % 0.00 in
14:26 91.4 °F 77.9 °F 29.91 in SE 9.0 mph 12.0 mph 65 % 0.00 in
14:31 90.1 °F 77.7 °F 29.91 in ESE 6.0 mph 14.0 mph 67 % 0.00 in
14:37 89.8 °F 77.7 °F 29.91 in SE 8.0 mph 14.0 mph 68 % 0.00 in
14:42 89.1 °F 77.2 °F 29.90 in SE 5.0 mph 14.0 mph 68 % 0.00 in
14:47 88.9 °F 77.4 °F 29.90 in ESE 8.0 mph 13.0 mph 69 % 0.00 in
14:52 88.2 °F 77.2 °F 29.90 in ESE 3.0 mph 13.0 mph 70 % 0.00 in
14:57 88.2 °F 76.3 °F 29.90 in ESE 5.0 mph 10.0 mph 68 % 0.00 in
15:02 88.3 °F 76.5 °F 29.90 in SSE 2.0 mph 10.0 mph 68 % 0.00 in
15:07 89.2 °F 75.9 °F 29.89 in ESE 5.0 mph 9.0 mph 65 % 0.00 in
15:12 90.3 °F 75.6 °F 29.89 in SE 6.0 mph 9.0 mph 62 % 0.00 in
15:17 91.2 °F 75.9 °F 29.89 in SE 7.0 mph 9.0 mph 61 % 0.00 in
15:27 92.7 °F 79.2 °F 29.89 in ESE 9.0 mph 9.0 mph 65 % 0.00 in
15:32 91.9 °F 77.5 °F 29.89 in SSE 1.0 mph 9.0 mph 63 % 0.00 in
15:37 91.9 °F 77.5 °F 29.89 in SSE 7.0 mph 9.0 mph 63 % 0.00 in
15:42 91.2 °F 77.4 °F 29.89 in ENE 5.0 mph 12.0 mph 64 % 0.00 in
15:47 91.0 °F 78.1 °F 29.88 in East 5.0 mph 12.0 mph 66 % 0.00 in
15:52 91.0 °F 78.1 °F 29.88 in SSE 3.0 mph 12.0 mph 66 % 0.00 in
15:57 91.2 °F 78.8 °F 29.88 in ESE 9.0 mph 11.0 mph 67 % 0.00 in
16:02 91.6 °F 78.6 °F 29.88 in ESE 4.0 mph 11.0 mph 66 % 0.00 in
16:07 91.2 °F 78.3 °F 29.88 in SE 3.0 mph 11.0 mph 66 % 0.00 in
16:12 91.0 °F 78.1 °F 29.88 in SE 5.0 mph 11.0 mph 66 % 0.00 in
16:17 91.0 °F 77.5 °F 29.88 in SSE 7.0 mph 11.0 mph 65 % 0.00 in
16:22 90.7 °F 77.4 °F 29.88 in SW 8.0 mph 11.0 mph 65 % 0.00 in
16:27 90.5 °F 76.6 °F 29.88 in SE 4.0 mph 11.0 mph 64 % 0.00 in
16:32 90.0 °F 76.1 °F 29.88 in SSE 8.0 mph 11.0 mph 64 % 0.00 in
16:37 89.8 °F 76.5 °F 29.88 in SE 6.0 mph 11.0 mph 65 % 0.00 in
16:42 89.8 °F 76.5 °F 29.88 in SSE 7.0 mph 11.0 mph 65 % 0.00 in
16:47 90.1 °F 77.2 °F 29.87 in SE 5.0 mph 11.0 mph 66 % 0.00 in
16:52 90.5 °F 77.2 °F 29.87 in SSE 2.0 mph 10.0 mph 65 % 0.00 in
16:57 90.9 °F 77.9 °F 29.87 in SSE 2.0 mph 10.0 mph 66 % 0.00 in
16:59 90.9 °F 77.9 °F 29.87 in SE 5.0 mph 10.0 mph 66 % 0.00 in
17:04 90.9 °F 77.9 °F 29.87 in SSE 7.0 mph 10.0 mph 66 % 0.00 in
17:10 91.0 °F 78.1 °F 29.87 in SSE 9.0 mph 11.0 mph 66 % 0.00 in
17:15 91.0 °F 78.1 °F 29.87 in ESE 4.0 mph 12.0 mph 66 % 0.00 in
17:16 91.2 °F 78.3 °F 29.87 in SE 7.0 mph 12.0 mph 66 % 0.00 in
17:21 91.0 °F 77.5 °F 29.87 in SSE 3.0 mph 12.0 mph 65 % 0.00 in
17:26 90.3 °F 76.5 °F 29.87 in ESE 5.0 mph 12.0 mph 64 % 0.00 in
17:31 90.5 °F 76.6 °F 29.87 in NE 2.0 mph 13.0 mph 64 % 0.00 in
17:36 90.3 °F 77.0 °F 29.87 in SSE 7.0 mph 13.0 mph 65 % 0.00 in
17:41 90.1 °F 76.3 °F 29.87 in SE 8.0 mph 13.0 mph 64 % 0.00 in
17:46 90.3 °F 76.5 °F 29.86 in SSE 2.0 mph 9.0 mph 64 % 0.00 in
17:51 90.1 °F 76.3 °F 29.87 in East 4.0 mph 9.0 mph 64 % 0.00 in
17:57 90.1 °F 76.8 °F 29.87 in East 7.0 mph 10.0 mph 65 % 0.00 in
18:02 90.3 °F 77.0 °F 29.87 in SW 2.0 mph 10.0 mph 65 % 0.00 in
18:07 90.1 °F 76.8 °F 29.88 in SE 5.0 mph 10.0 mph 65 % 0.00 in
18:12 90.1 °F 76.8 °F 29.88 in South 2.0 mph 9.0 mph 65 % 0.00 in
18:17 90.1 °F 76.8 °F 29.88 in ESE 6.0 mph 10.0 mph 65 % 0.00 in
18:22 90.1 °F 76.8 °F 29.88 in SSE 4.0 mph 10.0 mph 65 % 0.00 in
18:27 90.0 °F 77.0 °F 29.88 in ESE 7.0 mph 11.0 mph 66 % 0.00 in
18:32 89.8 °F 76.5 °F 29.88 in East 5.0 mph 12.0 mph 65 % 0.00 in
18:37 89.4 °F 76.6 °F 29.88 in SSE 3.0 mph 12.0 mph 66 % 0.00 in
18:42 89.1 °F 76.6 °F 29.88 in South 6.0 mph 12.0 mph 67 % 0.00 in
18:47 88.9 °F 76.5 °F 29.88 in ESE 7.0 mph 10.0 mph 67 % 0.00 in
18:52 88.3 °F 75.9 °F 29.88 in South 5.0 mph 10.0 mph 67 % 0.00 in
18:57 88.3 °F 75.9 °F 29.88 in East 8.0 mph 10.0 mph 67 % 0.00 in
19:02 88.2 °F 76.3 °F 29.88 in ESE 5.0 mph 10.0 mph 68 % 0.00 in
19:07 88.0 °F 76.1 °F 29.89 in South 4.0 mph 10.0 mph 68 % 0.00 in
19:12 87.6 °F 76.1 °F 29.89 in SE 3.0 mph 10.0 mph 69 % 0.00 in
19:17 87.6 °F 76.6 °F 29.89 in SE 5.0 mph 8.0 mph 70 % 0.00 in
19:22 87.3 °F 76.3 °F 29.89 in SSW 2.0 mph 10.0 mph 70 % 0.00 in
19:27 87.3 °F 76.6 °F 29.89 in SSE 3.0 mph 10.0 mph 71 % 0.00 in
19:32 87.1 °F 76.5 °F 29.89 in SE 3.0 mph 10.0 mph 71 % 0.00 in
19:37 86.7 °F 76.6 °F 29.89 in East 4.0 mph 9.0 mph 72 % 0.00 in
19:42 86.7 °F 76.6 °F 29.88 in ENE 2.0 mph 7.0 mph 72 % 0.00 in
19:47 86.5 °F 76.5 °F 29.88 in SE 2.0 mph 7.0 mph 72 % 0.00 in
19:52 86.5 °F 76.5 °F 29.89 in ESE 5.0 mph 7.0 mph 72 % 0.00 in
19:57 86.5 °F 76.5 °F 29.89 in SSE 3.0 mph 7.0 mph 72 % 0.00 in
20:02 86.4 °F 76.3 °F 29.89 in SSE 2.0 mph 7.0 mph 72 % 0.00 in
20:07 86.4 °F 76.6 °F 29.89 in SSW 1.0 mph 7.0 mph 73 % 0.00 in
20:12 85.8 °F 76.6 °F 29.89 in SSW 1.0 mph 5.0 mph 74 % 0.00 in
20:17 85.6 °F 76.5 °F 29.89 in SSE 1.0 mph 5.0 mph 74 % 0.00 in
20:22 85.6 °F 76.8 °F 29.88 in SSE 3.0 mph 4.0 mph 75 % 0.00 in
20:27 85.6 °F 76.8 °F 29.88 in Calm   4.0 mph 75 % 0.00 in
20:32 85.6 °F 76.8 °F 29.88 in Calm   4.0 mph 75 % 0.00 in
20:37 85.5 °F 76.6 °F 29.89 in Calm   4.0 mph 75 % 0.00 in
20:42 85.5 °F 77.0 °F 29.89 in Calm   4.0 mph 76 % 0.00 in
20:47 85.3 °F 76.8 °F 29.89 in Calm   3.0 mph 76 % 0.00 in
20:52 85.3 °F 76.8 °F 29.89 in SE 1.0 mph 3.0 mph 76 % 0.00 in
20:57 85.3 °F 77.2 °F 29.89 in Calm   3.0 mph 77 % 0.00 in
21:02 85.1 °F 77.0 °F 29.89 in Calm   3.0 mph 77 % 0.00 in
21:07 84.9 °F 76.8 °F 29.89 in Calm   3.0 mph 77 % 0.00 in
21:10 84.9 °F 76.8 °F 29.89 in Calm   3.0 mph 77 % 0.00 in
21:15 84.7 °F 76.6 °F 29.90 in SE 1.0 mph 2.0 mph 77 % 0.00 in
21:20 84.7 °F 77.2 °F 29.90 in Calm   1.0 mph 78 % 0.00 in
21:25 84.7 °F 77.2 °F 29.90 in East 1.0 mph 1.0 mph 78 % 0.00 in
21:30 84.7 °F 77.2 °F 29.90 in ESE 1.0 mph 2.0 mph 78 % 0.00 in
21:35 84.7 °F 77.2 °F 29.90 in ESE 3.0 mph 3.0 mph 78 % 0.00 in
21:40 84.6 °F 77.0 °F 29.90 in Calm   4.0 mph 78 % 0.00 in
21:45 84.6 °F 77.0 °F 29.90 in Calm   4.0 mph 78 % 0.00 in
21:50 84.4 °F 77.2 °F 29.90 in Calm   4.0 mph 79 % 0.00 in
21:55 84.4 °F 77.2 °F 29.90 in Calm   3.0 mph 79 % 0.00 in
22:00 84.2 °F 77.0 °F 29.90 in Calm   2.0 mph 79 % 0.00 in
22:05 83.8 °F 77.0 °F 29.91 in South 1.0 mph 2.0 mph 80 % 0.00 in
22:10 83.7 °F 77.2 °F 29.91 in SSW 2.0 mph 2.0 mph 81 % 0.00 in
22:15 83.5 °F 77.0 °F 29.91 in SSW 1.0 mph 4.0 mph 81 % 0.00 in
22:20 83.5 °F 77.0 °F 29.92 in South 2.0 mph 4.0 mph 81 % 0.00 in
22:25 83.5 °F 77.0 °F 29.92 in South 1.0 mph 4.0 mph 81 % 0.00 in
22:30 83.5 °F 77.0 °F 29.92 in SSW 2.0 mph 4.0 mph 81 % 0.00 in
22:35 83.3 °F 76.8 °F 29.92 in SSE 3.0 mph 4.0 mph 81 % 0.00 in
22:40 83.5 °F 77.0 °F 29.92 in SE 1.0 mph 4.0 mph 81 % 0.00 in
22:45 83.5 °F 77.0 °F 29.93 in Calm   4.0 mph 81 % 0.00 in
22:50 83.3 °F 76.8 °F 29.93 in East 2.0 mph 4.0 mph 81 % 0.00 in
22:55 83.1 °F 76.6 °F 29.93 in South 1.0 mph 4.0 mph 81 % 0.00 in
23:00 83.1 °F 76.6 °F 29.93 in Calm   4.0 mph 81 % 0.00 in
23:05 82.9 °F 76.5 °F 29.94 in Calm   4.0 mph 81 % 0.00 in
23:10 82.8 °F 76.6 °F 29.94 in Calm   4.0 mph 82 % 0.00 in
23:15 82.8 °F 76.6 °F 29.94 in Calm   5.0 mph 82 % 0.00 in
23:20 82.9 °F 76.8 °F 29.94 in Calm   5.0 mph 82 % 0.00 in
23:25 82.8 °F 76.6 °F 29.94 in Calm   5.0 mph 82 % 0.00 in
23:30 82.8 °F 76.6 °F 29.94 in Calm   4.0 mph 82 % 0.00 in
23:35 82.6 °F 76.8 °F 29.94 in Calm   3.0 mph 83 % 0.00 in
23:36 82.6 °F 76.8 °F 29.95 in SSW 2.0 mph 3.0 mph 83 % 0.00 in
23:41 82.2 °F 76.5 °F 29.95 in South 2.0 mph 2.0 mph 83 % 0.00 in
23:46 82.0 °F 76.6 °F 29.95 in SSW 1.0 mph 2.0 mph 84 % 0.00 in
23:51 81.9 °F 76.5 °F 29.95 in Calm   2.0 mph 84 % 0.00 in
23:56 81.7 °F 76.3 °F 29.95 in Calm   2.0 mph 84 % 0.00 in
Spring, Texas: Villages of Bridgestone
Compliments of Weather Underground - 2.75 mb

Script developed by  Jim McMurry - jmcmurry@mwt.net Adapted for the template by  Wim van der Kuil - Leuven-Template.eu

You find our weather info also at:

UK Metoffice

WeatherCloud

Weather Underground

Mid-South Weather Network

AWEKAS

Citizen Weather Observer Program (CWOP)

HAMweather, WeatherForYou, PWS Weather

Equipment we use:

Weather-station
Davis Vantage Vue

Weather-program
Meteohub

Weather-server
Debian 7.9 x86 (Guest)

Provider
DreamHost

Davis Vantage Vue

Meteohub

Debian 7.9 x86 (Guest)

DreamHost